Time;durP1;ratioP1;P1;durP2;ratioP2;P2;SDS_P1;SDS_P2;PMS_P1;PMS_P2;Temp;Humidity;BMP_temperature;BMP_pressure;BME280_temperature;BME280_humidity;BME280_pressure;Samples;Min_cycle;Max_cycle;Signal;HPM_P1;HPM_P2
2023/07/10 00:01:18;;;;;;;;;;;21.00;80.20;;;;;;5094050;28;20459;-64
2023/07/10 00:03:44;;;;;;;;;;;20.90;80.10;;;;;;5093747;28;20013;-63
2023/07/10 00:06:11;;;;;;;;;;;21.00;80.70;;;;;;5094010;28;20035;-65
2023/07/10 00:08:37;;;;;;;;;;;20.90;80.30;;;;;;5093915;28;19985;-63
2023/07/10 00:11:03;;;;;;;;;;;20.90;80.20;;;;;;5093871;28;20351;-65
2023/07/10 00:13:29;;;;;;;;;;;20.80;80.00;;;;;;5093715;28;19985;-65
2023/07/10 00:15:54;;;;;;;;;;;20.80;79.10;;;;;;5093926;28;19989;-63
2023/07/10 00:18:21;;;;;;;;;;;20.80;79.70;;;;;;5093997;28;20095;-64
2023/07/10 00:20:47;;;;;;;;;;;20.70;79.40;;;;;;5093715;28;19996;-64
2023/07/10 00:23:13;;;;;;;;;;;20.70;79.00;;;;;;5093986;28;20013;-63
2023/07/10 00:25:39;;;;;;;;;;;20.60;79.10;;;;;;5093670;28;19992;-64
2023/07/10 00:28:12;;;;;;;;;;;20.60;79.30;;;;;;5093805;28;19999;-65
2023/07/10 00:30:38;;;;;;;;;;;20.60;80.00;;;;;;5093665;28;20455;-65
2023/07/10 00:33:04;;;;;;;;;;;20.60;80.60;;;;;;5093604;28;19989;-64
2023/07/10 00:35:30;;;;;;;;;;;20.60;81.80;;;;;;5093665;28;20122;-62
2023/07/10 00:38:01;;;;;;;;;;;20.50;81.90;;;;;;5093698;28;19985;-64
2023/07/10 00:40:31;;;;;;;;;;;20.50;81.00;;;;;;5093545;28;20443;-65
2023/07/10 00:42:59;;;;;;;;;;;20.40;81.00;;;;;;5093434;28;20470;-64
2023/07/10 00:45:25;;;;;;;;;;;20.40;81.00;;;;;;5094651;28;19993;-64
2023/07/10 00:47:58;;;;;;;;;;;20.40;81.10;;;;;;5113823;28;19998;-63
2023/07/10 00:50:30;;;;;;;;;;;20.40;80.80;;;;;;5113979;28;20450;-62
2023/07/10 00:52:56;;;;;;;;;;;20.30;80.60;;;;;;5113937;28;20071;-65
2023/07/10 00:55:33;;;;;;;;;;;20.30;80.90;;;;;;5113784;28;20030;-63
2023/07/10 00:58:12;;;;;;;;;;;20.30;81.10;;;;;;5113801;28;20009;-64
2023/07/10 01:00:38;;;;;;;;;;;20.30;80.80;;;;;;5113752;28;20035;-63
2023/07/10 01:03:03;;;;;;;;;;;20.30;80.60;;;;;;5113657;28;20013;-63
2023/07/10 01:05:31;;;;;;;;;;;20.30;81.30;;;;;;5113679;28;19985;-63
2023/07/10 01:07:58;;;;;;;;;;;20.20;80.90;;;;;;5116350;28;20034;-65
2023/07/10 01:10:23;;;;;;;;;;;20.10;81.50;;;;;;5117881;28;19988;-63
2023/07/10 01:12:49;;;;;;;;;;;20.20;81.60;;;;;;5117453;28;20054;-65
2023/07/10 01:15:15;;;;;;;;;;;20.10;82.60;;;;;;5117732;28;19992;-65
2023/07/10 01:17:41;;;;;;;;;;;20.10;81.90;;;;;;5117580;28;19985;-65
2023/07/10 01:20:25;;;;;;;;;;;20.10;81.60;;;;;;5117434;28;19984;-64
2023/07/10 01:22:51;;;;;;;;;;;19.90;81.70;;;;;;5117430;28;20059;-63
2023/07/10 01:25:16;;;;;;;;;;;19.90;81.70;;;;;;5117387;28;20024;-64
2023/07/10 01:27:42;;;;;;;;;;;19.90;81.60;;;;;;5116998;28;19985;-65
2023/07/10 01:30:19;;;;;;;;;;;19.90;81.80;;;;;;5117268;28;20089;-63
2023/07/10 01:32:45;;;;;;;;;;;19.90;82.70;;;;;;5117433;28;19992;-64
2023/07/10 01:35:13;;;;;;;;;;;19.80;82.70;;;;;;5117079;28;19985;-65
2023/07/10 01:37:39;;;;;;;;;;;19.80;83.80;;;;;;5117109;28;20426;-63
2023/07/10 01:40:05;;;;;;;;;;;19.80;83.80;;;;;;5117129;28;20028;-63
2023/07/10 01:42:30;;;;;;;;;;;19.70;83.80;;;;;;5116964;28;20442;-63
2023/07/10 01:44:56;;;;;;;;;;;19.60;83.90;;;;;;5117173;28;19988;-64
2023/07/10 01:47:21;;;;;;;;;;;19.70;85.00;;;;;;5116654;28;20521;-63
2023/07/10 01:49:48;;;;;;;;;;;19.60;84.00;;;;;;5116746;28;19989;-65
2023/07/10 01:52:16;;;;;;;;;;;19.60;84.30;;;;;;5116952;28;19995;-63
2023/07/10 01:54:43;;;;;;;;;;;19.60;84.40;;;;;;5116556;28;19991;-65
2023/07/10 01:57:09;;;;;;;;;;;19.60;84.00;;;;;;5116907;28;20374;-63
2023/07/10 01:59:35;;;;;;;;;;;19.60;84.20;;;;;;5116634;28;20549;-63
2023/07/10 02:02:01;;;;;;;;;;;19.60;84.50;;;;;;5116718;28;20032;-65
2023/07/10 02:04:26;;;;;;;;;;;19.50;84.90;;;;;;5116422;28;20356;-63
2023/07/10 02:06:55;;;;;;;;;;;19.60;85.80;;;;;;5116436;28;20011;-63
2023/07/10 02:09:23;;;;;;;;;;;19.50;85.00;;;;;;5116788;28;20071;-64
2023/07/10 02:11:48;;;;;;;;;;;19.50;85.10;;;;;;5116470;28;19991;-63
2023/07/10 02:14:14;;;;;;;;;;;19.50;84.50;;;;;;5116179;28;19992;-63
2023/07/10 02:16:39;;;;;;;;;;;19.50;84.10;;;;;;5116432;28;19989;-65
2023/07/10 02:19:05;;;;;;;;;;;19.50;83.50;;;;;;5115217;28;20447;-64
2023/07/10 02:21:34;;;;;;;;;;;19.50;83.70;;;;;;5116125;28;20344;-65
2023/07/10 02:23:59;;;;;;;;;;;19.50;83.40;;;;;;5116071;28;20008;-64
2023/07/10 02:26:27;;;;;;;;;;;19.50;84.10;;;;;;5116073;28;19992;-64
2023/07/10 02:28:52;;;;;;;;;;;19.40;84.10;;;;;;5116298;28;19989;-65
2023/07/10 02:31:18;;;;;;;;;;;19.40;84.30;;;;;;5116028;28;20028;-64
2023/07/10 02:33:44;;;;;;;;;;;19.40;84.70;;;;;;5116043;28;19989;-63
2023/07/10 02:36:09;;;;;;;;;;;19.40;85.30;;;;;;5115945;28;19984;-64
2023/07/10 02:38:35;;;;;;;;;;;19.40;85.40;;;;;;5115655;28;20030;-63
2023/07/10 02:41:00;;;;;;;;;;;19.30;84.90;;;;;;5115935;28;20067;-63
2023/07/10 02:43:26;;;;;;;;;;;19.30;85.90;;;;;;5115780;28;20015;-63
2023/07/10 02:45:51;;;;;;;;;;;19.30;86.10;;;;;;5115419;28;20063;-65
2023/07/10 02:48:17;;;;;;;;;;;19.20;86.30;;;;;;5115659;28;19984;-64
2023/07/10 02:50:43;;;;;;;;;;;19.20;86.60;;;;;;5115878;28;19989;-65
2023/07/10 02:53:09;;;;;;;;;;;19.20;86.20;;;;;;5115341;28;20075;-64
2023/07/10 02:55:34;;;;;;;;;;;19.20;86.10;;;;;;5115509;28;19988;-64
2023/07/10 02:58:01;;;;;;;;;;;19.20;87.00;;;;;;5115715;28;20012;-64
2023/07/10 03:00:27;;;;;;;;;;;19.20;86.90;;;;;;5115629;28;19989;-65
2023/07/10 03:02:53;;;;;;;;;;;19.20;86.60;;;;;;5115614;28;20379;-63
2023/07/10 03:05:19;;;;;;;;;;;19.20;86.60;;;;;;5115366;28;19988;-64
2023/07/10 03:07:45;;;;;;;;;;;19.20;87.40;;;;;;5115049;28;19991;-63
2023/07/10 03:10:10;;;;;;;;;;;19.20;87.70;;;;;;5115372;28;19984;-63
2023/07/10 03:12:36;;;;;;;;;;;19.10;87.90;;;;;;5115219;28;20070;-64
2023/07/10 03:15:01;;;;;;;;;;;19.10;88.40;;;;;;5115194;28;20038;-63
2023/07/10 03:17:27;;;;;;;;;;;19.10;88.70;;;;;;5115119;28;19996;-63
2023/07/10 03:25:59;;;;;;;;;;;19.00;87.60;;;;;;5114999;28;20102;-64
2023/07/10 03:28:24;;;;;;;;;;;19.00;87.90;;;;;;5114948;28;20024;-64
2023/07/10 03:30:50;;;;;;;;;;;19.00;87.70;;;;;;5114633;28;19984;-64
2023/07/10 03:33:16;;;;;;;;;;;18.90;88.40;;;;;;5114819;28;19996;-64
2023/07/10 03:35:42;;;;;;;;;;;19.00;87.80;;;;;;5114890;28;20406;-64
2023/07/10 03:38:08;;;;;;;;;;;18.90;88.50;;;;;;5114501;28;20026;-64
2023/07/10 03:40:33;;;;;;;;;;;18.90;89.20;;;;;;5114652;28;20023;-64
2023/07/10 03:42:59;;;;;;;;;;;18.90;89.00;;;;;;5114752;28;20051;-63
2023/07/10 03:45:24;;;;;;;;;;;18.90;88.70;;;;;;5114451;28;19989;-63
2023/07/10 03:47:50;;;;;;;;;;;18.90;89.00;;;;;;5114539;28;19988;-65
2023/07/10 03:50:15;;;;;;;;;;;18.90;88.40;;;;;;5114482;28;19984;-63
2023/07/10 03:52:41;;;;;;;;;;;18.90;88.00;;;;;;5114784;28;19989;-65
2023/07/10 03:55:07;;;;;;;;;;;18.90;88.00;;;;;;5114723;28;20345;-65
2023/07/10 03:57:32;;;;;;;;;;;18.90;89.10;;;;;;5114296;28;20446;-64
2023/07/10 03:59:58;;;;;;;;;;;18.90;88.30;;;;;;5114476;28;19991;-64
2023/07/10 04:02:23;;;;;;;;;;;18.90;89.50;;;;;;5114293;28;20084;-63
2023/07/10 04:04:49;;;;;;;;;;;18.90;88.90;;;;;;5114252;28;20055;-63
2023/07/10 04:07:14;;;;;;;;;;;18.90;88.40;;;;;;5114132;28;19989;-63
2023/07/10 04:09:40;;;;;;;;;;;19.00;88.60;;;;;;5114312;28;19989;-64
2023/07/10 04:12:06;;;;;;;;;;;19.00;89.80;;;;;;5114223;28;20358;-63
2023/07/10 04:14:36;;;;;;;;;;;19.00;89.20;;;;;;5114156;28;20012;-64
2023/07/10 04:17:02;;;;;;;;;;;19.10;88.80;;;;;;5114265;28;19984;-65
2023/07/10 04:19:27;;;;;;;;;;;19.10;89.80;;;;;;5114260;28;19995;-64
2023/07/10 04:21:53;;;;;;;;;;;19.10;90.00;;;;;;5113975;28;20351;-64
2023/07/10 04:24:18;;;;;;;;;;;19.20;89.90;;;;;;5114085;28;20375;-65
2023/07/10 04:26:44;;;;;;;;;;;19.20;89.70;;;;;;5113987;28;19988;-62
2023/07/10 04:29:10;;;;;;;;;;;19.30;90.10;;;;;;5114066;28;19996;-63
2023/07/10 04:31:35;;;;;;;;;;;19.30;90.30;;;;;;5114065;28;19985;-65
2023/07/10 04:34:02;;;;;;;;;;;19.30;90.70;;;;;;5113954;28;19992;-65
2023/07/10 04:36:28;;;;;;;;;;;19.30;90.90;;;;;;5113708;28;19997;-65
2023/07/10 04:38:53;;;;;;;;;;;19.40;90.80;;;;;;5114293;28;19996;-65
2023/07/10 04:41:20;;;;;;;;;;;19.40;90.90;;;;;;5113990;28;19985;-64
2023/07/10 04:43:46;;;;;;;;;;;19.40;91.20;;;;;;5117952;28;20443;-63
2023/07/10 04:46:12;;;;;;;;;;;19.50;90.50;;;;;;5117938;28;20024;-65
2023/07/10 04:48:38;;;;;;;;;;;19.50;90.70;;;;;;5118113;28;19991;-64
2023/07/10 04:51:04;;;;;;;;;;;19.50;90.80;;;;;;5117717;28;19988;-63
2023/07/10 04:53:31;;;;;;;;;;;19.50;91.40;;;;;;5118445;28;20039;-64
2023/07/10 04:55:56;;;;;;;;;;;19.60;90.80;;;;;;5117974;28;19985;-63
2023/07/10 04:58:23;;;;;;;;;;;19.60;91.00;;;;;;5117680;28;20489;-64
2023/07/10 05:00:52;;;;;;;;;;;19.60;91.30;;;;;;5118114;28;19989;-65
2023/07/10 05:03:17;;;;;;;;;;;19.60;91.30;;;;;;5117400;28;20013;-63
2023/07/10 05:06:03;;;;;;;;;;;19.50;91.50;;;;;;5117913;28;19989;-65
2023/07/10 05:08:29;;;;;;;;;;;19.60;91.70;;;;;;5117143;28;20150;-66
2023/07/10 05:10:54;;;;;;;;;;;19.60;91.40;;;;;;5117203;28;20071;-63
2023/07/10 05:13:21;;;;;;;;;;;19.70;91.20;;;;;;5117765;28;20070;-64
2023/07/10 05:15:47;;;;;;;;;;;19.80;91.10;;;;;;5117610;28;19988;-63
2023/07/10 05:18:13;;;;;;;;;;;19.90;91.40;;;;;;5116141;28;20515;-64
2023/07/10 05:20:39;;;;;;;;;;;20.00;90.60;;;;;;5116168;28;20385;-63
2023/07/10 05:23:05;;;;;;;;;;;20.00;90.50;;;;;;5117230;28;20013;-65
2023/07/10 05:25:31;;;;;;;;;;;20.10;90.50;;;;;;5117191;28;19984;-64
2023/07/10 05:27:58;;;;;;;;;;;20.20;89.30;;;;;;5117288;28;20335;-63
2023/07/10 05:30:24;;;;;;;;;;;20.30;88.00;;;;;;5116849;28;19992;-63
2023/07/10 05:32:50;;;;;;;;;;;20.50;87.80;;;;;;5116770;28;19985;-65
2023/07/10 05:35:16;;;;;;;;;;;20.50;85.80;;;;;;5116514;28;20053;-63
2023/07/10 05:37:41;;;;;;;;;;;20.50;85.50;;;;;;5116992;28;20427;-63
2023/07/10 05:40:07;;;;;;;;;;;20.50;87.00;;;;;;5116968;28;19985;-62
2023/07/10 05:42:33;;;;;;;;;;;20.70;86.30;;;;;;5116730;28;19985;-64
2023/07/10 05:44:58;;;;;;;;;;;20.80;84.70;;;;;;5116567;28;19985;-64
2023/07/10 05:47:24;;;;;;;;;;;20.90;84.50;;;;;;5115533;28;20020;-63
2023/07/10 05:49:50;;;;;;;;;;;21.00;84.20;;;;;;5116368;28;19988;-63
2023/07/10 05:52:15;;;;;;;;;;;21.10;82.40;;;;;;5116688;28;19992;-63
2023/07/10 05:54:41;;;;;;;;;;;21.20;82.90;;;;;;5116418;28;19992;-64
2023/07/10 05:57:07;;;;;;;;;;;21.40;82.50;;;;;;5116258;28;20370;-64
2023/07/10 05:59:32;;;;;;;;;;;21.50;82.10;;;;;;5116669;28;19992;-65
2023/07/10 06:01:58;;;;;;;;;;;21.60;82.30;;;;;;5116273;28;20125;-64
2023/07/10 06:04:23;;;;;;;;;;;21.70;82.50;;;;;;5116297;28;20016;-63
2023/07/10 06:06:49;;;;;;;;;;;21.90;80.20;;;;;;5116401;28;19995;-65
2023/07/10 06:09:15;;;;;;;;;;;21.90;81.50;;;;;;5116273;28;20452;-62
2023/07/10 06:11:40;;;;;;;;;;;21.90;81.40;;;;;;5116454;28;19985;-63
2023/07/10 06:14:06;;;;;;;;;;;22.10;82.00;;;;;;5116212;28;20010;-64
2023/07/10 06:16:31;;;;;;;;;;;22.20;81.90;;;;;;5116027;28;19984;-64
2023/07/10 06:18:57;;;;;;;;;;;22.40;82.10;;;;;;5116163;28;19985;-65
2023/07/10 06:21:23;;;;;;;;;;;22.60;82.90;;;;;;5116019;28;20079;-64
2023/07/10 06:23:48;;;;;;;;;;;22.60;81.20;;;;;;5116143;28;20017;-63
2023/07/10 06:26:14;;;;;;;;;;;22.70;81.20;;;;;;5116197;28;20057;-64
2023/07/10 06:28:39;;;;;;;;;;;22.90;78.20;;;;;;5115921;28;20504;-63
2023/07/10 06:31:06;;;;;;;;;;;23.00;79.00;;;;;;5115557;28;20071;-63
2023/07/10 06:33:32;;;;;;;;;;;23.10;76.90;;;;;;5115957;28;19996;-64
2023/07/10 06:35:58;;;;;;;;;;;23.20;77.00;;;;;;5116066;28;20058;-65
2023/07/10 06:38:24;;;;;;;;;;;23.40;73.70;;;;;;5115590;28;20439;-64
2023/07/10 06:40:50;;;;;;;;;;;23.50;74.30;;;;;;5115799;28;20032;-63
2023/07/10 06:43:17;;;;;;;;;;;23.50;72.00;;;;;;5115788;28;20464;-63
2023/07/10 06:45:43;;;;;;;;;;;23.60;71.50;;;;;;5115433;28;20016;-63
2023/07/10 06:48:09;;;;;;;;;;;23.70;74.80;;;;;;5115998;28;19995;-64
2023/07/10 06:50:35;;;;;;;;;;;23.80;72.20;;;;;;5115694;28;19995;-64
2023/07/10 06:53:00;;;;;;;;;;;24.00;72.10;;;;;;5115524;28;20121;-64
2023/07/10 06:55:26;;;;;;;;;;;24.10;73.40;;;;;;5115682;28;20054;-65
2023/07/10 06:57:52;;;;;;;;;;;24.30;72.80;;;;;;5115367;28;20035;-63
2023/07/10 07:00:17;;;;;;;;;;;24.40;72.60;;;;;;5114879;28;20079;-63
2023/07/10 07:02:43;;;;;;;;;;;24.50;73.50;;;;;;5115488;28;20086;-65
2023/07/10 07:05:10;;;;;;;;;;;24.60;72.60;;;;;;5115060;28;20020;-65
2023/07/10 07:07:37;;;;;;;;;;;24.60;71.60;;;;;;5115381;28;20077;-65
2023/07/10 07:10:03;;;;;;;;;;;24.80;71.70;;;;;;5115282;28;20379;-65
2023/07/10 07:12:29;;;;;;;;;;;24.90;70.50;;;;;;5115239;28;19988;-64
2023/07/10 07:14:54;;;;;;;;;;;25.00;71.60;;;;;;5115022;28;19989;-63
2023/07/10 07:17:20;;;;;;;;;;;25.20;72.00;;;;;;5115165;28;19984;-63
2023/07/10 07:19:46;;;;;;;;;;;25.30;71.40;;;;;;5115157;28;20397;-65
2023/07/10 07:22:12;;;;;;;;;;;25.50;72.50;;;;;;5115081;28;19984;-64
2023/07/10 07:24:37;;;;;;;;;;;25.60;68.80;;;;;;5114848;28;20016;-64
2023/07/10 07:27:03;;;;;;;;;;;25.80;66.90;;;;;;5115210;28;19989;-65
2023/07/10 07:29:29;;;;;;;;;;;25.90;66.60;;;;;;5114715;28;20071;-63
2023/07/10 07:31:54;;;;;;;;;;;26.00;66.00;;;;;;5114819;28;19989;-64
2023/07/10 07:34:20;;;;;;;;;;;26.10;65.60;;;;;;5114967;28;19985;-63
2023/07/10 07:36:48;;;;;;;;;;;26.20;65.60;;;;;;5114508;28;19985;-63
2023/07/10 07:39:15;;;;;;;;;;;26.40;64.50;;;;;;5114651;28;19993;-65
2023/07/10 07:41:41;;;;;;;;;;;26.60;64.80;;;;;;5114731;28;20007;-62
2023/07/10 07:44:07;;;;;;;;;;;27.20;63.10;;;;;;5114381;28;20008;-64
2023/07/10 07:46:32;;;;;;;;;;;29.30;62.00;;;;;;5114523;28;20020;-63
2023/07/10 07:48:58;;;;;;;;;;;31.90;57.00;;;;;;5114842;28;20506;-64
2023/07/10 07:51:23;;;;;;;;;;;33.70;51.90;;;;;;5114453;28;20007;-64
2023/07/10 07:54:00;;;;;;;;;;;35.00;49.90;;;;;;5114582;28;19985;-63
2023/07/10 07:56:25;;;;;;;;;;;36.10;48.40;;;;;;5096500;28;20492;-63
2023/07/10 07:58:51;;;;;;;;;;;37.10;46.20;;;;;;5114456;28;20028;-64
2023/07/10 08:01:17;;;;;;;;;;;37.60;43.90;;;;;;5114271;28;20461;-64
2023/07/10 08:03:42;;;;;;;;;;;38.20;43.20;;;;;;5094872;28;20012;-63
2023/07/10 08:06:08;;;;;;;;;;;38.70;41.50;;;;;;5112616;28;19991;-64
2023/07/10 08:08:33;;;;;;;;;;;38.90;41.00;;;;;;5113542;28;20474;-63
2023/07/10 08:10:59;;;;;;;;;;;39.10;41.50;;;;;;5113873;28;20392;-65
2023/07/10 08:13:24;;;;;;;;;;;39.10;39.70;;;;;;5113743;28;19989;-64
2023/07/10 08:15:50;;;;;;;;;;;39.00;41.30;;;;;;5113765;28;19992;-65
2023/07/10 08:18:15;;;;;;;;;;;39.10;39.70;;;;;;5113592;28;19985;-65
2023/07/10 08:20:41;;;;;;;;;;;39.10;39.00;;;;;;5114215;28;19985;-63
2023/07/10 08:23:07;;;;;;;;;;;38.90;40.10;;;;;;5114308;28;20108;-65
2023/07/10 08:25:33;;;;;;;;;;;39.20;40.20;;;;;;5114018;28;20344;-65
2023/07/10 08:27:58;;;;;;;;;;;39.50;40.00;;;;;;5113921;28;20084;-64
2023/07/10 08:30:24;;;;;;;;;;;39.80;39.30;;;;;;5114132;28;20055;-62
2023/07/10 08:32:50;;;;;;;;;;;40.10;39.40;;;;;;5113995;28;20020;-63
2023/07/10 08:35:16;;;;;;;;;;;40.40;40.00;;;;;;5113943;28;19985;-65
2023/07/10 08:37:41;;;;;;;;;;;39.90;40.50;;;;;;5113921;28;20028;-64
2023/07/10 08:40:14;;;;;;;;;;;39.50;38.30;;;;;;5114227;28;20457;-65
2023/07/10 08:42:40;;;;;;;;;;;39.30;38.70;;;;;;5113648;28;19999;-65
2023/07/10 08:45:09;;;;;;;;;;;39.50;39.60;;;;;;5114288;28;19992;-63
2023/07/10 08:47:42;;;;;;;;;;;39.90;39.40;;;;;;5113727;28;20028;-63
2023/07/10 08:50:29;;;;;;;;;;;40.30;38.10;;;;;;5113923;28;20035;-64
2023/07/10 08:52:54;;;;;;;;;;;40.60;39.00;;;;;;5114118;28;20058;-65
2023/07/10 08:55:27;;;;;;;;;;;40.80;39.70;;;;;;5113887;28;20439;-63
2023/07/10 08:57:58;;;;;;;;;;;40.90;39.70;;;;;;5113699;28;20537;-65
2023/07/10 09:00:25;;;;;;;;;;;40.80;40.60;;;;;;5113534;28;19984;-63
2023/07/10 09:03:09;;;;;;;;;;;40.60;37.90;;;;;;5113699;28;20033;-63
2023/07/10 09:05:36;;;;;;;;;;;40.50;37.70;;;;;;5113628;28;20580;-64
2023/07/10 09:08:05;;;;;;;;;;;40.30;37.70;;;;;;5113681;28;20427;-64
2023/07/10 09:10:37;;;;;;;;;;;40.10;38.40;;;;;;5113526;28;20035;-65
2023/07/10 09:13:03;;;;;;;;;;;40.00;40.40;;;;;;5113526;28;19991;-63
2023/07/10 09:15:31;;;;;;;;;;;40.00;40.60;;;;;;5113872;28;20335;-63
2023/07/10 09:18:03;;;;;;;;;;;39.90;38.90;;;;;;5113591;28;20079;-65
2023/07/10 09:20:29;;;;;;;;;;;39.70;39.00;;;;;;5113651;28;20381;-64
2023/07/10 09:22:56;;;;;;;;;;;39.90;37.70;;;;;;5113381;28;19993;-63
2023/07/10 09:25:22;;;;;;;;;;;40.10;37.40;;;;;;5113670;28;19989;-63
2023/07/10 09:27:48;;;;;;;;;;;40.10;39.90;;;;;;5114416;28;20351;-64
2023/07/10 09:30:16;;;;;;;;;;;40.00;38.80;;;;;;5117405;28;19985;-63
2023/07/10 09:32:42;;;;;;;;;;;40.00;38.30;;;;;;5117175;28;20083;-63
2023/07/10 09:35:08;;;;;;;;;;;40.00;41.00;;;;;;5117070;28;20085;-64
2023/07/10 09:37:34;;;;;;;;;;;40.00;40.30;;;;;;5117062;28;20076;-64
2023/07/10 09:40:18;;;;;;;;;;;40.00;40.60;;;;;;5116843;28;20035;-65
2023/07/10 09:42:43;;;;;;;;;;;40.00;42.50;;;;;;5117010;28;19989;-64
2023/07/10 09:45:09;;;;;;;;;;;40.00;37.70;;;;;;5117010;28;20049;-65
2023/07/10 09:47:43;;;;;;;;;;;40.00;38.60;;;;;;5116701;28;20024;-63
2023/07/10 09:50:13;;;;;;;;;;;40.00;39.40;;;;;;5116990;28;20034;-64
2023/07/10 09:52:40;;;;;;;;;;;40.10;37.90;;;;;;5116981;28;20027;-65
2023/07/10 09:55:08;;;;;;;;;;;40.00;38.00;;;;;;5116805;28;19985;-63
2023/07/10 09:57:48;;;;;;;;;;;39.80;39.50;;;;;;5116736;28;20026;-64
2023/07/10 10:00:18;;;;;;;;;;;39.60;38.80;;;;;;5116600;28;19988;-65
2023/07/10 10:02:48;;;;;;;;;;;39.50;40.00;;;;;;5116488;28;19984;-64
2023/07/10 10:05:15;;;;;;;;;;;39.00;39.90;;;;;;5116824;28;20090;-65
2023/07/10 10:07:42;;;;;;;;;;;39.10;40.60;;;;;;5116232;28;20420;-64
2023/07/10 10:10:19;;;;;;;;;;;39.00;38.00;;;;;;5116637;28;19989;-64
2023/07/10 10:12:47;;;;;;;;;;;39.20;37.70;;;;;;5116393;28;20030;-64
2023/07/10 10:15:20;;;;;;;;;;;39.40;35.10;;;;;;5116610;28;19992;-64
2023/07/10 10:17:47;;;;;;;;;;;39.50;35.70;;;;;;5116626;28;20332;-64
2023/07/10 10:20:27;;;;;;;;;;;39.20;34.10;;;;;;5116244;28;20018;-64
2023/07/10 10:22:53;;;;;;;;;;;39.40;34.70;;;;;;5115956;28;20003;-62
2023/07/10 10:25:21;;;;;;;;;;;39.70;36.30;;;;;;5116153;28;20073;-63
2023/07/10 10:27:51;;;;;;;;;;;39.80;34.10;;;;;;5116047;28;20035;-63
2023/07/10 10:30:16;;;;;;;;;;;39.80;36.80;;;;;;5116259;28;20007;-65
2023/07/10 10:32:45;;;;;;;;;;;39.80;33.50;;;;;;5116380;28;20435;-65
2023/07/10 10:35:16;;;;;;;;;;;39.20;34.80;;;;;;5115892;28;19985;-65
2023/07/10 10:37:45;;;;;;;;;;;39.20;34.60;;;;;;5116064;28;19988;-63
2023/07/10 10:40:25;;;;;;;;;;;39.50;35.10;;;;;;5115048;28;19984;-65
2023/07/10 10:43:00;;;;;;;;;;;39.60;35.30;;;;;;5115764;28;19984;-64
2023/07/10 10:45:28;;;;;;;;;;;39.60;35.50;;;;;;5115832;28;19984;-63
2023/07/10 10:48:14;;;;;;;;;;;39.50;33.60;;;;;;5115608;28;20020;-63
2023/07/10 10:50:40;;;;;;;;;;;39.20;35.80;;;;;;5115736;28;20462;-64
2023/07/10 10:53:24;;;;;;;;;;;39.20;35.20;;;;;;5115372;28;19985;-64
2023/07/10 10:55:49;;;;;;;;;;;39.30;35.20;;;;;;5115696;28;19985;-63
2023/07/10 10:58:33;;;;;;;;;;;38.70;37.10;;;;;;5115651;28;20005;-63
2023/07/10 11:01:16;;;;;;;;;;;38.60;38.00;;;;;;5115629;28;20037;-64
2023/07/10 11:03:44;;;;;;;;;;;38.80;38.40;;;;;;5115371;28;20013;-63
2023/07/10 11:06:27;;;;;;;;;;;39.00;37.90;;;;;;5115356;28;19992;-64
2023/07/10 11:08:56;;;;;;;;;;;39.30;34.60;;;;;;5115313;28;20084;-64
2023/07/10 11:11:25;;;;;;;;;;;39.30;36.90;;;;;;5115410;28;20363;-63
2023/07/10 11:13:51;;;;;;;;;;;39.20;37.50;;;;;;5115359;28;19989;-63
2023/07/10 11:16:17;;;;;;;;;;;39.10;36.10;;;;;;5115126;28;20392;-63
2023/07/10 11:18:43;;;;;;;;;;;39.10;36.30;;;;;;5115179;28;19985;-65
2023/07/10 11:21:09;;;;;;;;;;;39.00;38.50;;;;;;5114965;28;19987;-63
2023/07/10 11:23:40;;;;;;;;;;;39.20;38.10;;;;;;5115100;28;20022;-63
2023/07/10 11:26:09;;;;;;;;;;;39.10;37.70;;;;;;5115017;28;19989;-65
2023/07/10 11:28:35;;;;;;;;;;;39.10;38.50;;;;;;5114856;28;19993;-63
2023/07/10 11:31:15;;;;;;;;;;;38.90;36.60;;;;;;5115122;28;19995;-65
2023/07/10 11:33:42;;;;;;;;;;;39.00;36.10;;;;;;5115078;28;20012;-63
2023/07/10 11:36:10;;;;;;;;;;;39.20;37.50;;;;;;5114539;28;20034;-64
2023/07/10 11:38:36;;;;;;;;;;;39.50;36.20;;;;;;5114750;28;20451;-65
2023/07/10 11:41:19;;;;;;;;;;;39.50;34.70;;;;;;5114796;28;20006;-64
2023/07/10 11:43:46;;;;;;;;;;;39.00;35.00;;;;;;5114784;28;20430;-64
2023/07/10 11:46:17;;;;;;;;;;;38.90;31.10;;;;;;5114749;28;20021;-65
2023/07/10 11:48:55;;;;;;;;;;;39.10;33.30;;;;;;5114527;28;20042;-65
2023/07/10 11:51:39;;;;;;;;;;;39.30;33.30;;;;;;5114264;28;20335;-65
2023/07/10 11:54:05;;;;;;;;;;;39.20;33.30;;;;;;5114677;28;19996;-63
2023/07/10 11:56:31;;;;;;;;;;;39.10;34.00;;;;;;5114463;28;20008;-63
2023/07/10 11:59:00;;;;;;;;;;;39.20;35.40;;;;;;5114416;28;20396;-64
2023/07/10 12:01:26;;;;;;;;;;;39.20;31.70;;;;;;5114328;28;19985;-65
2023/07/10 12:03:54;;;;;;;;;;;39.10;32.70;;;;;;5114169;28;20047;-65
2023/07/10 12:06:24;;;;;;;;;;;39.00;34.70;;;;;;5114599;28;19993;-63
2023/07/10 12:08:50;;;;;;;;;;;38.80;32.80;;;;;;5114209;28;20036;-63
2023/07/10 12:11:30;;;;;;;;;;;38.80;32.20;;;;;;5114296;28;19984;-65
2023/07/10 12:14:01;;;;;;;;;;;38.60;31.70;;;;;;5114119;28;20453;-62
2023/07/10 12:16:27;;;;;;;;;;;38.70;33.80;;;;;;5114089;28;19988;-65
2023/07/10 12:19:01;;;;;;;;;;;38.90;35.10;;;;;;5114178;28;20010;-62
2023/07/10 12:21:27;;;;;;;;;;;39.20;37.30;;;;;;5114103;28;19991;-63
2023/07/10 12:23:53;;;;;;;;;;;39.00;34.00;;;;;;5114116;28;20008;-64
2023/07/10 12:26:19;;;;;;;;;;;39.20;34.40;;;;;;5114393;28;19989;-65
2023/07/10 12:28:44;;;;;;;;;;;39.00;33.10;;;;;;5113956;28;20000;-63
2023/07/10 12:31:12;;;;;;;;;;;39.20;36.00;;;;;;5114219;28;20071;-63
2023/07/10 12:33:41;;;;;;;;;;;39.50;34.10;;;;;;5113959;28;19985;-64
2023/07/10 12:36:15;;;;;;;;;;;39.50;35.30;;;;;;5113902;28;20560;-63
2023/07/10 12:38:41;;;;;;;;;;;39.10;35.30;;;;;;5114010;28;20007;-64
2023/07/10 12:41:07;;;;;;;;;;;39.00;33.60;;;;;;5114069;28;20443;-64
2023/07/10 12:43:32;;;;;;;;;;;39.00;35.10;;;;;;5114041;28;20157;-62
2023/07/10 12:46:04;;;;;;;;;;;38.80;35.70;;;;;;5113948;28;20466;-65
2023/07/10 12:48:31;;;;;;;;;;;38.70;36.00;;;;;;5113802;28;19985;-63
2023/07/10 12:50:59;;;;;;;;;;;38.90;35.90;;;;;;5114075;28;19992;-62
2023/07/10 12:53:26;;;;;;;;;;;39.00;33.70;;;;;;5113795;28;20439;-63
2023/07/10 12:56:02;;;;;;;;;;;39.10;33.30;;;;;;5113770;28;20503;-64
2023/07/10 12:58:28;;;;;;;;;;;39.20;33.10;;;;;;5113966;28;20039;-63
2023/07/10 13:00:59;;;;;;;;;;;39.20;33.80;;;;;;5113909;28;20020;-64
2023/07/10 13:03:28;;;;;;;;;;;39.20;32.70;;;;;;5114854;28;20391;-62
2023/07/10 13:05:57;;;;;;;;;;;39.10;35.10;;;;;;5117818;28;19985;-62
2023/07/10 13:08:23;;;;;;;;;;;39.00;31.50;;;;;;5117995;28;19989;-64
2023/07/10 13:10:51;;;;;;;;;;;39.10;34.70;;;;;;5117575;28;20035;-63
2023/07/10 13:13:18;;;;;;;;;;;39.30;35.50;;;;;;5117886;28;19996;-65
2023/07/10 13:15:43;;;;;;;;;;;39.30;34.70;;;;;;5117557;28;20439;-64
2023/07/10 13:18:45;;;;;;;;;;;39.30;34.00;;;;;;5117262;28;20006;-64
2023/07/10 13:21:13;;;;;;;;;;;39.50;36.10;;;;;;5014919;28;20454;-64
2023/07/10 13:23:39;;;;;;;;;;;39.40;35.50;;;;;;5092699;28;20013;-63
2023/07/10 13:26:14;;;;;;;;;;;39.20;37.00;;;;;;5117445;28;19995;-63
2023/07/10 13:28:40;;;;;;;;;;;39.20;38.70;;;;;;5117358;28;20432;-64
2023/07/10 13:31:06;;;;;;;;;;;39.00;37.00;;;;;;5117055;28;20045;-65
2023/07/10 13:33:32;;;;;;;;;;;38.90;36.50;;;;;;5117420;28;19984;-64
2023/07/10 13:35:58;;;;;;;;;;;38.90;33.70;;;;;;5117246;28;20071;-64
2023/07/10 13:38:24;;;;;;;;;;;38.80;37.10;;;;;;5117069;28;20023;-62
2023/07/10 13:40:50;;;;;;;;;;;38.60;34.30;;;;;;5117223;28;19992;-63
2023/07/10 13:43:17;;;;;;;;;;;38.90;34.00;;;;;;5116991;28;20008;-63
2023/07/10 13:45:44;;;;;;;;;;;38.70;33.00;;;;;;5116612;28;19984;-64
2023/07/10 13:48:10;;;;;;;;;;;38.70;37.50;;;;;;5117234;28;20363;-63
2023/07/10 13:50:36;;;;;;;;;;;38.90;34.90;;;;;;5117045;28;19988;-63
2023/07/10 13:53:02;;;;;;;;;;;39.10;34.10;;;;;;5116824;28;19985;-62
2023/07/10 13:55:27;;;;;;;;;;;38.90;34.60;;;;;;5117102;28;20028;-62
2023/07/10 13:57:53;;;;;;;;;;;38.80;35.80;;;;;;5116785;28;20551;-61
2023/07/10 14:00:18;;;;;;;;;;;38.70;32.80;;;;;;5116449;28;20462;-62
2023/07/10 14:02:47;;;;;;;;;;;39.00;35.10;;;;;;5116957;28;20023;-62
2023/07/10 14:05:14;;;;;;;;;;;38.90;33.70;;;;;;5116730;28;19996;-61
2023/07/10 14:07:40;;;;;;;;;;;38.80;34.40;;;;;;5116806;28;19992;-60
2023/07/10 14:10:06;;;;;;;;;;;38.70;34.90;;;;;;5116489;28;20439;-60
2023/07/10 14:12:32;;;;;;;;;;;38.90;37.90;;;;;;5116503;28;19988;-62
2023/07/10 14:14:58;;;;;;;;;;;38.90;33.00;;;;;;5114976;28;19984;-60
2023/07/10 14:17:23;;;;;;;;;;;39.00;33.40;;;;;;5116657;28;20452;-60
2023/07/10 14:19:49;;;;;;;;;;;39.10;34.10;;;;;;5116373;28;19985;-61
2023/07/10 14:22:15;;;;;;;;;;;39.10;34.20;;;;;;5116325;28;19989;-62
2023/07/10 14:24:41;;;;;;;;;;;39.00;34.50;;;;;;5116431;28;20012;-61